Time;durP1;ratioP1;P1;durP2;ratioP2;P2;SDS_P1;SDS_P2;PMS_P1;PMS_P2;Temp;Humidity;BMP_temperature;BMP_pressure;BME280_temperature;BME280_humidity;BME280_pressure;Samples;Min_cycle;Max_cycle;Signal;HPM_P1;HPM_P2
2021/06/02 00:02:15;;;;;;;;;6.50;6.25;;;;;25.29;34.14;100224.03;5002640;27;45669;-86
2021/06/02 00:04:54;;;;;;;;;10.50;9.25;;;;;25.66;34.58;100279.59;5019149;27;48436;-85
2021/06/02 00:07:25;;;;;;;;;8.50;7.25;;;;;25.57;34.72;100272.84;5009083;27;46246;-85
2021/06/02 00:09:56;;;;;;;;;7.75;7.50;;;;;25.39;34.17;100246.69;5009588;27;46197;-83
2021/06/02 00:12:22;;;;;;;;;8.25;8.00;;;;;25.33;34.59;100238.66;4999864;28;45745;-84
2021/06/02 00:14:47;;;;;;;;;8.75;8.00;;;;;25.42;35.08;100270.41;5007566;28;48600;-86
2021/06/02 00:17:14;;;;;;;;;6.75;6.00;;;;;25.50;34.85;100278.22;5011601;27;47087;-84
2021/06/02 00:19:39;;;;;;;;;8.75;7.00;;;;;25.08;34.77;100225.19;5001823;27;45989;-85
2021/06/02 00:22:08;;;;;;;;;7.00;7.00;;;;;25.46;34.77;100287.72;5012602;27;46181;-86
2021/06/02 00:24:38;;;;;;;;;7.25;7.00;;;;;25.34;34.81;100272.50;5010533;28;45903;-86
2021/06/02 00:27:06;;;;;;;;;7.50;7.00;;;;;25.28;34.63;100255.41;5011300;27;48216;-89
2021/06/02 00:29:33;;;;;;;;;7.75;6.75;;;;;25.41;35.26;100292.09;5015306;28;45716;-86
2021/06/02 00:32:01;;;;;;;;;7.25;7.25;;;;;25.38;35.01;100287.97;5017981;27;46279;-88
2021/06/02 00:34:27;;;;;;;;;7.75;7.75;;;;;25.12;34.98;100247.84;5002129;27;46592;-88
2021/06/02 00:36:52;;;;;;;;;10.50;8.00;;;;;25.13;34.91;100248.66;5013679;28;46015;-87
2021/06/02 00:39:18;;;;;;;;;8.75;8.00;;;;;25.36;34.96;100286.53;5018086;28;45508;-87
2021/06/02 00:41:47;;;;;;;;;8.00;7.25;;;;;25.35;35.26;100287.56;5036075;27;45586;-87
2021/06/02 00:44:15;;;;;;;;;8.75;8.00;;;;;25.21;35.09;100273.38;5008546;27;47762;-87
2021/06/02 00:46:43;;;;;;;;;7.50;7.50;;;;;25.32;35.15;100293.34;5012209;27;47337;-87
2021/06/02 00:49:11;;;;;;;;;9.25;8.25;;;;;25.23;34.94;100278.53;5001967;28;45746;-85
2021/06/02 00:51:37;;;;;;;;;9.00;9.00;;;;;25.30;35.45;100298.13;5015440;27;46319;-88
2021/06/02 00:54:07;;;;;;;;;8.50;8.00;;;;;25.21;35.73;100277.94;5017793;28;46178;-87
2021/06/02 00:56:37;;;;;;;;;8.25;6.75;;;;;25.28;35.11;100287.59;5013086;28;45693;-86
2021/06/02 00:59:03;;;;;;;;;7.00;7.00;;;;;25.27;35.42;100294.00;5019902;27;45772;-85
2021/06/02 01:01:34;;;;;;;;;9.25;8.25;;;;;25.03;35.55;100254.50;5010393;27;46954;-85
2021/06/02 01:04:04;;;;;;;;;9.50;9.00;;;;;25.10;35.14;100262.50;5011096;28;46856;-84
2021/06/02 01:06:34;;;;;;;;;8.00;7.75;;;;;25.22;35.59;100285.75;5056049;27;47195;-84
2021/06/02 01:09:03;;;;;;;;;9.50;9.00;;;;;25.13;35.40;100268.25;5012475;27;46000;-85
2021/06/02 01:11:30;;;;;;;;;10.25;8.25;;;;;24.91;35.68;100229.38;5012476;27;45797;-84
2021/06/02 01:13:57;;;;;;;;;7.25;7.25;;;;;24.97;35.90;100252.66;5008656;27;46059;-83
2021/06/02 01:16:32;;;;;;;;;7.25;7.25;;;;;25.14;35.67;100275.28;5011429;28;46041;-84
2021/06/02 01:18:58;;;;;;;;;8.00;7.75;;;;;25.14;35.84;100279.81;5012183;28;45578;-84
2021/06/02 01:21:28;;;;;;;;;7.00;7.00;;;;;25.03;36.06;100262.53;5008378;27;45681;-86
2021/06/02 01:23:59;;;;;;;;;8.00;8.00;;;;;24.85;36.19;100236.34;5001347;28;45847;-88
2021/06/02 01:26:28;;;;;;;;;7.75;7.25;;;;;24.92;36.07;100253.28;5000134;27;46499;-87
2021/06/02 01:28:54;;;;;;;;;9.50;8.50;;;;;25.05;36.36;100274.66;5016815;27;45696;-86
2021/06/02 01:31:42;;;;;;;;;8.25;8.25;;;;;25.02;36.45;100267.06;5013953;27;45773;-86
2021/06/02 01:34:26;;;;;;;;;8.00;8.00;;;;;25.01;36.05;100275.31;4980158;28;47380;-83
2021/06/02 01:37:10;;;;;;;;;7.75;7.75;;;;;24.98;36.16;100270.38;4994724;27;45656;-86
2021/06/02 01:40:09;;;;;;;;;9.00;9.00;;;;;24.71;36.03;100239.28;4983277;27;45830;-88
2021/06/02 01:43:14;;;;;;;;;9.50;8.00;;;;;24.91;36.19;100275.75;4975876;28;45640;-88
2021/06/02 01:46:01;;;;;;;;;8.00;7.00;;;;;24.86;36.44;100275.53;4990729;28;45933;-84
2021/06/02 01:48:33;;;;;;;;;8.50;7.50;;;;;24.83;36.77;100265.22;4990117;27;46096;-86
2021/06/02 01:51:14;;;;;;;;;10.50;7.00;;;;;24.81;36.47;100266.47;4975923;27;45910;-87
2021/06/02 01:53:58;;;;;;;;;8.00;7.25;;;;;24.79;37.08;100271.22;5003812;27;46725;-85
2021/06/02 01:57:04;;;;;;;;;7.00;7.00;;;;;24.76;37.01;100271.63;4987389;27;46506;-85
2021/06/02 02:00:09;;;;;;;;;9.25;8.00;;;;;24.72;37.08;100263.22;4980840;28;46259;-86
2021/06/02 02:02:55;;;;;;;;;9.00;9.00;;;;;24.70;36.77;100265.25;4984883;27;46066;-83
2021/06/02 02:05:50;;;;;;;;;8.00;8.00;;;;;24.46;36.74;100241.78;4988479;27;45838;-84
2021/06/02 02:08:34;;;;;;;;;8.00;8.00;;;;;24.67;37.25;100262.97;4972766;28;47310;-84
2021/06/02 02:11:19;;;;;;;;;9.00;8.00;;;;;24.46;36.91;100231.91;4984656;27;47994;-86
2021/06/02 02:14:03;;;;;;;;;8.00;7.50;;;;;24.55;36.68;100252.09;5011230;28;46075;-85
2021/06/02 02:16:53;;;;;;;;;9.25;8.50;;;;;24.62;36.88;100265.47;5010911;27;45738;-85
2021/06/02 02:19:45;;;;;;;;;7.75;7.25;;;;;24.57;37.47;100274.13;5010020;27;45773;-83
2021/06/02 02:22:30;;;;;;;;;10.50;9.25;;;;;24.46;37.09;100266.72;5001715;27;46664;-85
2021/06/02 02:25:09;;;;;;;;;7.75;7.75;;;;;24.34;37.71;100249.66;5000834;27;46116;-84
2021/06/02 02:27:48;;;;;;;;;8.00;7.75;;;;;24.20;37.31;100221.22;5008081;27;45842;-84
2021/06/02 02:30:23;;;;;;;;;7.75;7.00;;;;;24.47;37.51;100268.38;5012131;27;46153;-85
2021/06/02 02:33:03;;;;;;;;;8.25;7.50;;;;;24.13;37.15;100225.75;5006415;27;46429;-85
2021/06/02 02:35:38;;;;;;;;;8.50;8.25;;;;;24.44;37.62;100281.38;5007097;27;45760;-83
2021/06/02 02:38:09;;;;;;;;;8.25;8.00;;;;;24.41;37.90;100273.72;5010624;28;45796;-83
2021/06/02 02:40:50;;;;;;;;;9.00;8.00;;;;;24.38;38.15;100282.19;5009592;28;48444;-84
2021/06/02 02:43:47;;;;;;;;;8.75;7.00;;;;;24.33;37.57;100271.28;5009179;27;46165;-86
2021/06/02 02:46:31;;;;;;;;;7.00;7.00;;;;;24.26;37.77;100273.94;5013598;27;45794;-87
2021/06/02 02:49:30;;;;;;;;;7.50;7.00;;;;;24.20;38.54;100275.59;5007105;27;45747;-85
2021/06/02 02:52:21;;;;;;;;;10.50;10.00;;;;;24.15;38.11;100277.22;5007856;28;46001;-85
2021/06/02 02:54:58;;;;;;;;;7.75;7.50;;;;;23.97;38.71;100253.72;5000579;27;47921;-85
2021/06/02 02:57:43;;;;;;;;;10.00;8.50;;;;;24.02;38.66;100269.19;5011783;27;46140;-84
2021/06/02 03:00:12;;;;;;;;;7.50;6.75;;;;;24.03;38.77;100274.31;5006481;27;46099;-86
2021/06/02 03:02:57;;;;;;;;;8.50;6.25;;;;;23.78;38.74;100235.78;5042541;27;49200;-85
2021/06/02 03:05:29;;;;;;;;;9.25;8.75;;;;;23.68;38.95;100225.50;5004195;27;46140;-84
2021/06/02 03:08:26;;;;;;;;;7.75;7.00;;;;;23.92;39.18;100276.75;5012761;28;46040;-86
2021/06/02 03:11:35;;;;;;;;;7.75;7.25;;;;;23.88;39.23;100276.34;5024882;27;45719;-86
2021/06/02 03:14:25;;;;;;;;;7.00;7.00;;;;;23.85;38.88;100287.47;4966140;28;46573;-86
2021/06/02 03:16:59;;;;;;;;;8.50;8.00;;;;;23.58;39.01;100245.63;4948686;28;47612;-84
2021/06/02 03:19:38;;;;;;;;;8.00;8.00;;;;;23.79;39.41;100285.63;4965883;28;45813;-84
2021/06/02 03:22:07;;;;;;;;;7.75;7.25;;;;;23.78;39.52;100286.63;4968065;28;45911;-83
2021/06/02 03:24:45;;;;;;;;;8.00;7.25;;;;;23.76;39.36;100286.00;4950543;28;46822;-85
2021/06/02 03:27:17;;;;;;;;;8.25;8.00;;;;;23.52;39.67;100251.78;4952167;28;47989;-84
2021/06/02 03:29:56;;;;;;;;;8.75;8.00;;;;;23.71;39.39;100270.56;4955597;28;45697;-83
2021/06/02 03:32:49;;;;;;;;;8.25;7.25;;;;;23.69;40.02;100282.50;4951022;28;45855;-86
2021/06/02 03:35:30;;;;;;;;;9.00;9.00;;;;;23.48;39.43;100237.19;4976227;28;46732;-84
2021/06/02 03:38:19;;;;;;;;;8.00;8.00;;;;;23.66;39.42;100275.69;4972770;28;47039;-87
2021/06/02 03:41:07;;;;;;;;;9.75;8.75;;;;;23.28;40.03;100219.19;4966235;28;45922;-86
2021/06/02 03:43:38;;;;;;;;;8.25;8.25;;;;;23.42;39.67;100244.97;4966461;28;45761;-86
2021/06/02 03:46:25;;;;;;;;;8.75;7.75;;;;;23.61;39.73;100269.31;5007162;27;47276;-82
2021/06/02 03:49:09;;;;;;;;;7.75;7.75;;;;;23.59;40.15;100268.69;5007415;28;47453;-83
2021/06/02 03:52:06;;;;;;;;;9.75;9.00;;;;;23.55;40.49;100276.28;5004544;27;45778;-86
2021/06/02 03:54:46;;;;;;;;;7.50;7.50;;;;;23.54;40.01;100281.81;4997138;27;46154;-84
2021/06/02 03:57:34;;;;;;;;;8.50;8.00;;;;;23.26;39.99;100234.63;4985036;28;45872;-85
2021/06/02 04:00:06;;;;;;;;;8.00;8.00;;;;;23.49;40.30;100287.78;4993084;27;47239;-84
2021/06/02 04:03:02;;;;;;;;;8.00;8.00;;;;;23.48;40.02;100290.69;4991987;27;45886;-86
2021/06/02 04:05:49;;;;;;;;;8.75;8.50;;;;;23.46;40.12;100282.00;4990061;27;46274;-82
2021/06/02 04:08:39;;;;;;;;;9.00;9.00;;;;;23.43;40.95;100278.66;4992132;27;46796;-85
2021/06/02 04:11:16;;;;;;;;;10.00;8.50;;;;;23.42;40.89;100278.91;4989337;28;46758;-86
2021/06/02 04:14:01;;;;;;;;;10.75;9.75;;;;;23.39;40.60;100282.78;4989968;28;45845;-84
2021/06/02 04:16:38;;;;;;;;;9.00;8.50;;;;;23.04;40.63;100235.75;4991397;27;45773;-84
2021/06/02 04:19:06;;;;;;;;;9.75;9.75;;;;;23.23;41.12;100267.09;4973836;28;47533;-84
2021/06/02 04:21:34;;;;;;;;;9.00;8.25;;;;;23.18;41.08;100255.34;4987601;27;46042;-85
2021/06/02 04:24:04;;;;;;;;;8.75;8.00;;;;;23.37;41.13;100289.38;4990874;27;45871;-83
2021/06/02 04:26:36;;;;;;;;;9.25;8.25;;;;;23.22;40.75;100268.09;4991475;27;45846;-84
2021/06/02 04:29:08;;;;;;;;;9.75;9.50;;;;;23.35;41.20;100289.56;4990074;27;45892;-84
2021/06/02 04:31:35;;;;;;;;;35.00;32.00;;;;;23.07;40.68;100243.38;4994946;27;46186;-82
2021/06/02 04:34:01;;;;;;;;;9.25;9.25;;;;;22.94;41.01;100227.28;5011823;27;45745;-86
2021/06/02 04:36:28;;;;;;;;;12.25;12.25;;;;;23.12;40.91;100264.16;5001497;28;45911;-84
2021/06/02 04:38:55;;;;;;;;;11.00;10.25;;;;;23.24;41.59;100283.94;5013746;27;47532;-86
2021/06/02 04:41:23;;;;;;;;;11.00;10.00;;;;;23.08;41.51;100262.91;5014454;27;48229;-83
2021/06/02 04:43:50;;;;;;;;;11.00;9.00;;;;;23.05;41.94;100255.28;5030180;27;46545;-85
2021/06/02 04:46:18;;;;;;;;;9.25;8.00;;;;;23.23;41.23;100291.13;5003747;27;45788;-83
2021/06/02 04:48:43;;;;;;;;;15.00;12.75;;;;;22.94;41.58;100248.66;5001036;27;45890;-83
2021/06/02 04:51:40;;;;;;;;;11.00;9.00;;;;;23.20;41.32;100296.06;5036763;27;48256;-83
2021/06/02 04:54:29;;;;;;;;;13.50;12.00;;;;;23.17;41.45;100301.78;5002557;27;45740;-86
2021/06/02 04:57:30;;;;;;;;;12.00;12.00;;;;;23.13;41.93;100293.34;5016153;27;45701;-83
2021/06/02 05:00:16;;;;;;;;;12.00;12.00;;;;;23.09;41.43;100297.47;5006935;27;46005;-85
2021/06/02 05:03:00;;;;;;;;;11.50;11.00;;;;;23.07;42.22;100306.69;5008787;28;48044;-84
2021/06/02 05:05:34;;;;;;;;;14.00;12.25;;;;;23.02;42.47;100309.94;5006579;27;45627;-83
2021/06/02 05:08:25;;;;;;;;;16.25;15.25;;;;;23.01;41.79;100300.28;5013967;27;46333;-84
2021/06/02 05:11:15;;;;;;;;;14.00;12.25;;;;;22.98;42.42;100301.50;5011143;27;45613;-80
2021/06/02 05:14:17;;;;;;;;;12.00;10.50;;;;;22.94;42.46;100310.13;5007032;27;47546;-83
2021/06/02 05:17:17;;;;;;;;;10.50;10.50;;;;;22.90;42.61;100307.00;5010742;27;46276;-82
2021/06/02 05:20:19;;;;;;;;;12.00;11.00;;;;;22.88;42.36;100318.91;5013375;27;45711;-83
2021/06/02 05:23:12;;;;;;;;;10.00;9.50;;;;;22.86;42.60;100311.09;5010078;28;48627;-85
2021/06/02 05:26:15;;;;;;;;;11.50;11.00;;;;;22.85;42.90;100322.78;5006552;28;46149;-82
2021/06/02 05:29:23;;;;;;;;;11.00;10.50;;;;;22.85;43.15;100324.63;5012563;27;45861;-84
2021/06/02 05:31:59;;;;;;;;;11.00;10.75;;;;;22.84;43.19;100326.47;5003529;28;45748;-86
2021/06/02 05:34:59;;;;;;;;;10.75;10.00;;;;;22.81;42.96;100326.06;5009447;28;46658;-83
2021/06/02 05:37:49;;;;;;;;;10.50;10.50;;;;;22.78;43.08;100329.94;5007783;28;45841;-83
2021/06/02 05:40:21;;;;;;;;;12.25;10.50;;;;;22.77;42.99;100328.31;5010531;28;46118;-84
2021/06/02 05:43:04;;;;;;;;;13.00;10.00;;;;;22.78;43.58;100315.78;5013432;28;46555;-83
2021/06/02 05:46:18;;;;;;;;;11.25;9.75;;;;;22.69;43.42;100330.25;5013275;28;46292;-81
2021/06/02 05:49:14;;;;;;;;;11.50;11.00;;;;;22.77;43.74;100333.66;5009817;28;47608;-82
2021/06/02 05:52:17;;;;;;;;;10.75;10.50;;;;;22.77;43.60;100344.34;5002628;28;45765;-83
2021/06/02 05:55:07;;;;;;;;;10.50;10.50;;;;;22.77;44.13;100348.84;5004618;28;45781;-84
2021/06/02 05:58:08;;;;;;;;;10.00;9.75;;;;;22.54;43.81;100311.66;5001038;28;46282;-83
2021/06/02 06:00:59;;;;;;;;;12.75;12.00;;;;;22.59;43.98;100323.41;4995404;28;45889;-83
2021/06/02 06:03:46;;;;;;;;;13.25;13.25;;;;;22.77;44.39;100349.69;5009952;28;46065;-84
2021/06/02 06:06:41;;;;;;;;;10.75;10.50;;;;;22.77;44.21;100341.66;5011688;28;45825;-83
2021/06/02 06:09:31;;;;;;;;;13.50;13.50;;;;;22.77;44.46;100348.84;5011798;28;46433;-82
2021/06/02 06:12:47;;;;;;;;;13.50;13.00;;;;;22.78;44.59;100348.63;5006267;28;48051;-83
2021/06/02 06:15:49;;;;;;;;;13.75;12.75;;;;;22.77;44.68;100344.34;5010924;28;45881;-84
2021/06/02 06:18:39;;;;;;;;;12.75;12.75;;;;;22.76;44.86;100341.84;5001264;28;45888;-84
2021/06/02 06:21:26;;;;;;;;;16.25;13.25;;;;;22.81;44.86;100355.44;5005990;28;48189;-83
2021/06/02 06:24:12;;;;;;;;;16.25;13.00;;;;;22.82;44.73;100359.78;4999024;28;46062;-82
2021/06/02 06:26:59;;;;;;;;;14.25;13.75;;;;;22.77;45.43;100348.84;5002513;27;45808;-83
2021/06/02 06:29:37;;;;;;;;;17.00;15.00;;;;;22.85;45.37;100354.03;5005816;28;45793;-84
2021/06/02 06:32:05;;;;;;;;;14.00;14.00;;;;;22.56;45.06;100299.75;5004611;27;46179;-83
2021/06/02 06:34:34;;;;;;;;;13.00;12.25;;;;;22.87;45.66;100360.00;5008644;28;48011;-85
2021/06/02 06:37:05;;;;;;;;;15.50;14.25;;;;;22.86;45.32;100356.50;5009962;28;45900;-83
2021/06/02 06:39:48;;;;;;;;;17.00;12.00;;;;;22.80;45.29;100351.94;5010368;28;45736;-84
2021/06/02 06:42:17;;;;;;;;;13.75;13.75;;;;;22.57;45.51;100309.41;5009585;27;46037;-86
2021/06/02 06:44:45;;;;;;;;;16.00;14.75;;;;;22.89;45.35;100364.13;5024229;28;47474;-84
2021/06/02 06:47:14;;;;;;;;;15.25;14.25;;;;;22.91;45.95;100355.94;5001411;28;46028;-83
2021/06/02 06:49:44;;;;;;;;;14.25;13.50;;;;;22.93;45.80;100356.56;5008132;28;45702;-83
2021/06/02 06:52:12;;;;;;;;;16.00;14.25;;;;;22.88;46.27;100359.81;5010151;28;45668;-84
2021/06/02 06:54:39;;;;;;;;;14.25;13.00;;;;;22.93;46.07;100356.56;5009977;28;46173;-85
2021/06/02 06:57:06;;;;;;;;;15.00;14.00;;;;;22.85;45.92;100344.16;5007948;28;45867;-84
2021/06/02 06:59:34;;;;;;;;;17.25;16.25;;;;;22.97;45.83;100353.31;5008706;28;46024;-84
2021/06/02 07:01:59;;;;;;;;;16.00;14.00;;;;;22.91;46.54;100346.06;5009237;28;46355;-83
2021/06/02 07:04:27;;;;;;;;;14.25;13.50;;;;;22.94;46.00;100347.53;5008297;28;48002;-83
2021/06/02 07:06:54;;;;;;;;;15.50;15.25;;;;;22.94;46.04;100340.31;5008792;28;45690;-84
2021/06/02 07:09:21;;;;;;;;;14.75;14.50;;;;;22.98;46.35;100343.44;5023898;28;45601;-82
2021/06/02 07:11:47;;;;;;;;;16.75;14.25;;;;;22.98;46.80;100335.44;5006972;28;48440;-84
2021/06/02 07:14:20;;;;;;;;;17.50;15.75;;;;;23.05;46.62;100344.28;5000607;28;46462;-83
2021/06/02 07:16:45;;;;;;;;;18.00;16.00;;;;;22.82;46.45;100312.50;5006809;28;46425;-83
2021/06/02 07:19:12;;;;;;;;;16.75;15.75;;;;;22.97;46.83;100337.28;5041179;27;45627;-82
2021/06/02 07:21:44;;;;;;;;;18.25;17.25;;;;;23.01;46.83;100340.38;5009167;28;46392;-84
2021/06/02 07:24:10;;;;;;;;;15.00;14.25;;;;;23.26;46.98;100378.16;5007253;28;47337;-84
2021/06/02 07:26:36;;;;;;;;;16.25;14.75;;;;;23.22;47.54;100368.88;5012528;28;45652;-83
2021/06/02 07:29:02;;;;;;;;;18.00;14.25;;;;;23.09;47.27;100342.91;5035603;27;45982;-84
2021/06/02 07:31:28;;;;;;;;;17.00;16.00;;;;;23.29;47.09;100369.72;5017759;28;45871;-85
2021/06/02 07:33:54;;;;;;;;;16.75;15.25;;;;;23.20;47.38;100353.03;5016490;28;47899;-85
2021/06/02 07:36:40;;;;;;;;;12.75;12.75;;;;;23.32;47.51;100370.16;5020068;28;45647;-90
2021/06/02 07:39:14;;;;;;;;;16.25;15.00;;;;;23.34;47.36;100370.78;5018137;27;45951;-89
2021/06/02 07:41:44;;;;;;;;;15.50;14.50;;;;;23.09;47.74;100331.38;5035323;22;45668;-88
2021/06/02 07:44:37;;;;;;;;;;;;;;;;;;;;;
2021/06/02 07:47:47;;;;;;;;;16.25;15.00;;;;;23.26;47.68;100365.63;5080409;27;46261;-90
2021/06/02 07:50:44;;;;;;;;;15.00;14.00;;;;;23.43;48.05;100385.63;5044416;28;45691;-94
2021/06/02 07:59:07;;;;;;;;;17.75;14.25;;;;;23.25;48.46;100347.94;5289498;22;46397;-93
2021/06/02 08:01:46;;;;;;;;;18.00;16.00;;;;;23.56;48.53;100394.78;5066612;28;45750;-89
2021/06/02 08:04:18;;;;;;;;;14.50;13.00;;;;;23.43;48.57;100368.78;5061168;28;46962;-92
2021/06/02 08:07:07;;;;;;;;;14.00;13.00;;;;;23.63;48.76;100401.00;5060404;28;47484;-91
2021/06/02 08:09:35;;;;;;;;;14.75;14.50;;;;;23.67;48.45;100396.91;5071669;28;45687;-89
2021/06/02 08:12:01;;;;;;;;;14.25;13.00;;;;;23.58;48.39;100380.22;5053883;28;45946;-90
2021/06/02 08:14:28;;;;;;;;;15.25;14.25;;;;;23.75;48.64;100397.56;5050876;28;47393;-87
2021/06/02 08:16:57;;;;;;;;;13.50;13.00;;;;;23.80;48.68;100396.97;5062457;28;47289;-86
2021/06/02 08:19:22;;;;;;;;;14.25;13.25;;;;;23.83;49.02;100397.41;5072512;27;45705;-87
2021/06/02 08:21:50;;;;;;;;;11.50;11.25;;;;;23.88;49.06;100404.00;5054101;28;45946;-91
2021/06/02 08:24:22;;;;;;;;;14.25;13.50;;;;;23.91;48.69;100404.44;5062863;28;47344;-89
2021/06/02 08:26:49;;;;;;;;;13.00;13.00;;;;;23.82;48.97;100392.22;5057800;28;46875;-87
2021/06/02 08:29:16;;;;;;;;;15.50;14.75;;;;;23.86;49.32;100382.78;5050706;28;45966;-88
2021/06/02 08:31:41;;;;;;;;;13.50;13.00;;;;;23.91;49.18;100390.22;5054239;28;46067;-89
2021/06/02 08:34:10;;;;;;;;;15.00;14.25;;;;;23.91;49.05;100377.66;5052347;28;47559;-86
2021/06/02 08:36:35;;;;;;;;;13.00;12.75;;;;;23.86;48.85;100365.91;5054396;28;47307;-82
2021/06/02 08:39:01;;;;;;;;;15.25;14.25;;;;;23.94;48.99;100373.75;5069207;27;45854;-87
2021/06/02 08:41:26;;;;;;;;;14.50;14.25;;;;;24.10;49.04;100400.97;5073399;28;45837;-87
2021/06/02 08:43:52;;;;;;;;;12.50;12.00;;;;;24.23;49.37;100410.94;5051850;28;48357;-87
2021/06/02 08:46:18;;;;;;;;;13.75;13.75;;;;;24.31;49.42;100421.44;5053279;28;47992;-86
2021/06/02 08:48:49;;;;;;;;;16.50;15.50;;;;;24.11;48.92;100377.72;5052206;28;46155;-88
2021/06/02 08:51:19;;;;;;;;;13.25;13.00;;;;;24.24;49.25;100408.03;5067014;28;45742;-86
2021/06/02 08:53:51;;;;;;;;;12.75;12.00;;;;;24.31;49.29;100396.53;5060114;28;47296;-86
2021/06/02 08:56:21;;;;;;;;;15.75;14.50;;;;;24.47;49.45;100412.19;5053970;28;47349;-84
2021/06/02 08:58:46;;;;;;;;;13.25;13.00;;;;;24.37;48.72;100385.00;5054471;28;45852;-84
2021/06/02 09:01:14;;;;;;;;;15.50;15.00;;;;;24.40;49.24;100385.41;5040153;28;45896;-86
2021/06/02 09:03:40;;;;;;;;;13.25;13.25;;;;;24.60;49.23;100413.06;5071384;28;48282;-82
2021/06/02 09:06:09;;;;;;;;;16.00;14.50;;;;;24.64;49.30;100410.78;5061147;28;47786;-89
2021/06/02 09:08:39;;;;;;;;;12.50;12.25;;;;;24.67;49.32;100411.19;5044446;28;45715;-87
2021/06/02 09:11:19;;;;;;;;;13.25;12.50;;;;;24.72;49.43;100421.31;5056928;28;45783;-86
2021/06/02 09:13:46;;;;;;;;;15.25;14.25;;;;;24.64;49.35;100389.34;5052173;28;47510;-84
2021/06/02 09:16:23;;;;;;;;;12.75;12.75;;;;;24.83;49.04;100407.28;5067921;27;47122;-84
2021/06/02 09:19:09;;;;;;;;;15.00;15.00;;;;;24.90;48.97;100412.66;5059088;27;45748;-85
2021/06/02 09:21:38;;;;;;;;;15.75;14.50;;;;;24.85;48.89;100391.81;5062539;28;45884;-85
2021/06/02 09:24:07;;;;;;;;;13.75;13.50;;;;;24.97;48.91;100405.47;5060232;28;47673;-85
2021/06/02 09:26:32;;;;;;;;;13.00;12.75;;;;;24.68;49.07;100348.53;5061930;28;45871;-84
2021/06/02 09:29:10;;;;;;;;;15.25;14.75;;;;;24.92;48.88;100370.41;5056434;28;45721;-84
2021/06/02 09:31:42;;;;;;;;;13.75;13.00;;;;;25.23;48.64;100407.28;5049670;28;45638;-83
2021/06/02 09:34:22;;;;;;;;;14.75;13.75;;;;;25.17;49.06;100390.16;5059079;28;47400;-88
2021/06/02 09:36:51;;;;;;;;;12.00;12.00;;;;;25.40;48.73;100408.47;5047784;27;47259;-83
2021/06/02 09:39:20;;;;;;;;;16.75;14.00;;;;;25.48;48.55;100421.66;5048360;28;46842;-84
2021/06/02 09:41:50;;;;;;;;;16.00;14.00;;;;;25.55;48.66;100417.09;5074801;28;45718;-84
2021/06/02 09:44:21;;;;;;;;;13.75;13.50;;;;;25.48;48.93;100387.59;5083432;28;45879;-87
2021/06/02 09:46:58;;;;;;;;;14.75;14.00;;;;;25.69;48.68;100410.69;5065921;28;47327;-86
2021/06/02 09:49:24;;;;;;;;;14.50;14.50;;;;;25.76;48.51;100411.47;5055960;28;46102;-87
2021/06/02 09:51:49;;;;;;;;;12.25;11.75;;;;;25.43;48.69;100347.16;5063532;28;45796;-89
2021/06/02 09:54:24;;;;;;;;;13.75;12.50;;;;;25.89;48.18;100416.81;5064574;28;47491;-86
2021/06/02 09:56:50;;;;;;;;;13.75;13.25;;;;;25.91;48.50;100413.91;5049953;28;47196;-86
2021/06/02 09:59:19;;;;;;;;;13.75;12.75;;;;;25.82;48.62;100410.63;5070104;27;45757;-83
2021/06/02 10:02:01;;;;;;;;;13.75;12.75;;;;;25.72;48.50;100383.41;5073869;28;45681;-84
2021/06/02 10:04:41;;;;;;;;;13.00;13.00;;;;;25.97;48.33;100407.66;5074113;28;46479;-83
2021/06/02 10:07:21;;;;;;;;;18.00;16.50;;;;;26.09;48.63;100416.69;5065154;27;46104;-84
2021/06/02 10:09:47;;;;;;;;;14.75;14.50;;;;;26.00;48.00;100388.47;5060706;28;47548;-85
2021/06/02 10:12:12;;;;;;;;;13.75;12.50;;;;;26.15;48.42;100409.66;5069822;27;45629;-82
2021/06/02 10:14:39;;;;;;;;;14.50;14.00;;;;;26.11;47.92;100405.75;5069033;28;46783;-84
2021/06/02 10:17:28;;;;;;;;;14.25;14.25;;;;;26.24;48.35;100411.88;5067903;27;46186;-85
2021/06/02 10:19:54;;;;;;;;;13.25;13.25;;;;;26.02;47.99;100383.66;5063795;28;46359;-84
2021/06/02 10:22:21;;;;;;;;;16.75;15.50;;;;;26.31;47.82;100427.97;5057330;28;46087;-83
2021/06/02 10:24:49;;;;;;;;;13.25;12.75;;;;;26.39;48.07;100425.03;5048418;28;47556;-83
2021/06/02 10:27:15;;;;;;;;;14.00;14.00;;;;;26.22;47.52;100397.00;5064736;27;46207;-82
2021/06/02 10:29:41;;;;;;;;;16.00;14.00;;;;;26.41;47.78;100428.31;5057633;28;47010;-84
2021/06/02 10:32:07;;;;;;;;;13.75;12.00;;;;;26.49;47.85;100436.13;5065973;28;45677;-84
2021/06/02 10:34:32;;;;;;;;;17.75;15.75;;;;;26.35;47.69;100426.50;5064618;27;47234;-82
2021/06/02 10:36:58;;;;;;;;;14.75;14.75;;;;;26.36;48.22;100427.31;5066821;28;45689;-84
2021/06/02 10:39:41;;;;;;;;;14.00;13.00;;;;;26.49;47.73;100451.44;5063831;28;45714;-89
2021/06/02 10:42:34;;;;;;;;;14.50;14.50;;;;;26.51;47.73;100450.16;5073062;28;46401;-85
2021/06/02 10:45:52;;;;;;;;;15.25;13.75;;;;;26.58;47.82;100450.94;5052118;28;47348;-90
2021/06/02 10:48:41;;;;;;;;;13.50;12.50;;;;;26.37;47.55;100411.00;5049461;28;46889;-88
2021/06/02 10:51:23;;;;;;;;;13.00;12.00;;;;;26.44;47.43;100406.41;5049959;28;45965;-91
2021/06/02 10:54:05;;;;;;;;;16.00;14.25;;;;;26.68;47.41;100439.72;5049760;28;46126;-87
2021/06/02 10:56:30;;;;;;;;;13.75;13.00;;;;;26.80;47.34;100454.09;5051229;28;48158;-88
2021/06/02 10:58:56;;;;;;;;;12.00;12.00;;;;;26.60;47.46;100407.75;5061692;28;45820;-84
2021/06/02 11:01:24;;;;;;;;;13.25;12.75;;;;;26.69;47.09;100426.06;5070010;28;45706;-86
2021/06/02 11:04:26;;;;;;;;;16.00;13.00;;;;;26.95;47.08;100443.03;5066973;28;45868;-85
2021/06/02 11:07:13;;;;;;;;;13.75;12.75;;;;;26.88;46.86;100435.06;5010552;28;46218;-85
2021/06/02 11:10:05;;;;;;;;;12.75;12.00;;;;;26.71;47.24;100397.09;4988812;28;47953;-87
2021/06/02 11:12:45;;;;;;;;;14.00;13.75;;;;;27.11;46.32;100451.38;4991090;28;45522;-83
2021/06/02 11:15:36;;;;;;;;;15.25;14.25;;;;;27.17;46.88;100457.75;4997298;28;45549;-89
2021/06/02 11:18:10;;;;;;;;;13.00;13.00;;;;;27.23;46.64;100464.13;4983253;28;45771;-85
2021/06/02 11:20:40;;;;;;;;;13.75;12.75;;;;;27.18;46.61;100437.88;4995186;28;46332;-84
2021/06/02 11:23:10;;;;;;;;;14.25;13.75;;;;;27.34;46.84;100461.53;4976444;28;45840;-86
2021/06/02 11:25:35;;;;;;;;;12.00;12.00;;;;;27.24;45.93;100439.69;4979505;28;45820;-84
2021/06/02 11:28:04;;;;;;;;;13.00;12.50;;;;;27.35;46.18;100452.41;4973953;28;47357;-85
2021/06/02 11:30:29;;;;;;;;;12.00;12.00;;;;;27.35;46.29;100440.81;4979602;28;46066;-85
2021/06/02 11:32:57;;;;;;;;;14.50;14.50;;;;;27.48;45.75;100463.03;4988789;28;45720;-85
2021/06/02 11:35:58;;;;;;;;;12.25;12.25;;;;;27.51;45.83;100472.56;4968873;28;45777;-85
2021/06/02 11:38:26;;;;;;;;;13.25;12.25;;;;;27.39;45.86;100456.28;4981907;28;46799;-83
2021/06/02 11:40:53;;;;;;;;;13.00;13.00;;;;;27.53;45.68;100468.59;5015621;28;45839;-83
2021/06/02 11:43:20;;;;;;;;;13.00;12.75;;;;;27.45;45.18;100468.88;5071252;28;45688;-88
2021/06/02 11:45:49;;;;;;;;;14.00;13.50;;;;;27.43;45.54;100451.28;5079042;28;45751;-85
2021/06/02 11:48:24;;;;;;;;;11.00;11.00;;;;;27.54;45.04;100467.56;5056427;28;47329;-84
2021/06/02 11:50:50;;;;;;;;;15.00;14.00;;;;;27.47;45.25;100452.50;5061853;28;46835;-86
2021/06/02 11:53:16;;;;;;;;;10.75;10.75;;;;;27.62;44.83;100469.13;5064544;28;46029;-86
2021/06/02 11:55:42;;;;;;;;;15.50;14.50;;;;;27.65;45.08;100468.69;5070505;28;45844;-83
2021/06/02 11:58:08;;;;;;;;;13.50;13.50;;;;;27.68;45.14;100467.44;5049803;28;48270;-82
2021/06/02 12:00:35;;;;;;;;;15.00;12.25;;;;;27.64;44.76;100467.03;5055616;28;46243;-84
2021/06/02 12:03:04;;;;;;;;;12.00;12.00;;;;;27.58;44.82;100449.09;5053821;28;45938;-85
2021/06/02 12:05:32;;;;;;;;;14.50;14.00;;;;;27.70;44.68;100471.53;5032354;28;47290;-84
2021/06/02 12:08:09;;;;;;;;;13.25;13.00;;;;;27.66;45.26;100464.94;5048364;28;46457;-84